• Join FlightAware (Why Join?)
  • Login
  • US Flag 
03:15PM EDT


 

Airport Tracker/Info


-or-


 

Live Flight TrackerFlight Track Log ✈ N75801 ✈ 10-Jun-2013 ✈ KMCD - 1G0

Flight Track Log - Related Links

Times and Time Zones

All times are in EDT time to prevent confusion due to time zone crossing. See the N75801 flight status page for this flight to view local times or setup timezone preferences in your user account.

Time Position Orientation Groundspeed Altitude Reporting Facility
EDT Latitude Longitude Course Direction KTS MPH feet Rate Location/Type
12:00PM 45.6994 -84.5972 170° South 97 112 5,000  Level Minneapolis Center
12:01PM 45.6753 -84.5892 167° South 93 107 4,900  Descending Minneapolis Center
12:02PM 45.6483 -84.5819 169° South 92 106 5,000 60 Climbing Minneapolis Center
12:03PM 45.6228 -84.5761 171° South 93 107 5,100  Climbing Minneapolis Center
12:04PM 45.5958 -84.5678 168° South 93 107 5,100  Level Minneapolis Center
12:05PM 45.5683 -84.5611 170° South 94 108 5,200 -60 Climbing Minneapolis Center
12:06PM 45.7032 -84.5979 170° South  Level Estimated
12:06PM 45.5439 -84.5517 165° South 93 107 5,000  Level Minneapolis Center
12:07PM 45.5164 -84.5450 170° South 93 107 5,100  Climbing Minneapolis Center
12:08PM 45.4900 -84.5400 172° South 95 109 5,100 -60 Level Minneapolis Center
12:09PM 45.4636 -84.5269 161° South 94 108 5,000 -60 Descending Minneapolis Center
12:11PM 45.4372 -84.5228 174° South 95 109 5,000  Level Minneapolis Center
12:12PM 45.4086 -84.5186 174° South 96 110 5,000  Level Minneapolis Center
12:13PM 45.3842 -84.5111 168° South 92 106 5,000  Level Minneapolis Center
12:14PM 45.3578 -84.5011 165° South 92 106 5,000  Level Minneapolis Center
12:15PM 45.3303 -84.4939 170° South 93 107 5,000  Level Minneapolis Center
12:16PM 45.3064 -84.4836 163° South 92 106 5,000  Level Minneapolis Center
12:17PM 45.2792 -84.4767 170° South 93 107 5,000  Level Minneapolis Center
12:18PM 45.2547 -84.4697 169° South 91 105 5,000  Level Minneapolis Center
12:19PM 45.2272 -84.4628 170° South 94 108 5,000  Level Minneapolis Center
12:20PM 45.2025 -84.4564 170° South 91 105 5,100  Climbing Minneapolis Center
12:21PM 45.1756 -84.4500 171° South 92 106 5,000  Descending Minneapolis Center
12:22PM 45.1486 -84.4481 177° South 96 110 5,100  Climbing Minneapolis Center
12:23PM 45.1211 -84.4422 171° South 94 108 5,000 -120 Descending Minneapolis Center
12:24PM 45.0961 -84.4344 168° South 93 107 4,900  Descending Minneapolis Center
12:25PM 45.0697 -84.4286 171° South 90 104 5,000  Climbing Minneapolis Center
12:26PM 45.0464 -84.4211 167° South 88 101 5,000  Level Minneapolis Center
12:27PM 45.0217 -84.4125 166° South 86 99 5,000  Level Minneapolis Center
12:28PM 44.9967 -84.4014 163° South 87 100 5,000  Level Minneapolis Center
12:29PM 44.9731 -84.3928 166° South 88 101 5,000 -60 Level Minneapolis Center
12:30PM 44.9458 -84.3814 164° South 95 109 4,900  Descending Minneapolis Center
12:31PM 44.9231 -84.3731 165° South 89 102 5,000  Climbing Minneapolis Center
12:32PM 44.8969 -84.3617 163° South 90 104 5,000  Level Minneapolis Center
12:33PM 44.8731 -84.3528 165° South 91 105 5,000  Level Minneapolis Center
12:34PM 44.8461 -84.3431 166° South 93 107 5,000 -60 Level Minneapolis Center
12:35PM 44.8200 -84.3317 163° South 92 106 4,900 -60 Descending Minneapolis Center
12:36PM 44.7961 -84.3211 163° South 92 106 4,900  Level Minneapolis Center
12:37PM 44.7706 -84.3114 165° South 90 104 5,000  Climbing Minneapolis Center
12:38PM 44.7467 -84.3006 162° South 91 105 5,000  Level Minneapolis Center
12:39PM 44.7200 -84.2908 165° South 92 106 5,000  Level Minneapolis Center
12:41PM 44.6944 -84.2822 167° South 94 108 5,000  Level Minneapolis Center
12:42PM 44.6678 -84.2742 168° South 93 107 5,000  Level Minneapolis Center
12:43PM 44.6419 -84.2706 174° South 94 108 5,100  Climbing Minneapolis Center
12:44PM 44.6144 -84.2639 170° South 94 108 5,100  Level Minneapolis Center
12:45PM 44.5858 -84.2589 173° South 96 110 5,100  Level Minneapolis Center
12:46PM 44.5592 -84.2547 174° South 97 112 5,100 -60 Level Minneapolis Center
12:47PM 44.5283 -84.2547 180° South 103 119 5,000 -120 Descending Minneapolis Center
12:48PM 44.5014 -84.2500 173° South 99 114 4,900 -60 Descending Minneapolis Center
12:49PM 44.4733 -84.2447 172° South 96 110 4,900  Level Minneapolis Center
12:50PM 44.4469 -84.2397 172° South 97 112 5,000  Climbing Minneapolis Center
12:51PM 44.4194 -84.2364 175° South 94 108 5,000 -60 Level Minneapolis Center
12:52PM 44.3925 -84.2272 166° South 98 113 4,900 -60 Descending Minneapolis Center
12:53PM 44.3633 -84.2244 176° South 99 114 4,900  Level Minneapolis Center
12:54PM 44.3375 -84.2200 173° South 97 112 5,000  Climbing Minneapolis Center
12:55PM 44.3086 -84.2133 171° South 97 112 5,000  Level Minneapolis Center
12:56PM 44.2800 -84.2069 171° South 99 114 5,000  Level Minneapolis Center
12:57PM 44.2519 -84.2031 174° South 101 116 5,000 -60 Level Minneapolis Center
12:58PM 44.2228 -84.1994 175° South 98 113 4,900 -60 Descending Minneapolis Center
12:59PM 44.1950 -84.1939 172° South 100 115 4,900  Level Minneapolis Center
01:00PM 44.1650 -84.1878 172° South 101 116 4,900  Level Minneapolis Center
01:01PM 44.1383 -84.1839 174° South 99 114 4,900  Level Minneapolis Center
01:02PM 44.1089 -84.1853 182° South 99 114 4,900  Level Minneapolis Center
01:03PM 44.0822 -84.1872 183° South 98 113 5,000  Climbing Minneapolis Center
01:04PM 44.0511 -84.1894 183° South 104 120 4,900  Descending Minneapolis Center
01:05PM 44.0217 -84.1889 171° South 100 115 5,000  Climbing Minneapolis Center
01:06PM 44.0183 -84.1818 171° South  Level FlightAware Approximate
01:06PM 43.9925 -84.1906 182° South 104 120 5,000  Level Minneapolis Center
01:07PM 43.9622 -84.1911 181° South 103 119 5,000  Level Minneapolis Center
01:09PM 43.9327 -84.1828 169° South  Level FlightAware Approximate
01:16PM 43.7450 -84.1302 169° South  Level FlightAware Approximate
01:17PM 43.7182 -84.1227 169° South  Level FlightAware Approximate
01:18PM 43.6914 -84.1152 169° South  Level FlightAware Approximate
01:19PM 43.6646 -84.1078 169° South  Level FlightAware Approximate
01:20PM 43.6378 -84.1003 169° South  Level FlightAware Approximate
01:21PM 43.6110 -84.0928 169° South  Level FlightAware Approximate
01:22PM 43.5841 -84.0854 169° South  Level FlightAware Approximate
01:23PM 43.5573 -84.0779 169° South  Level FlightAware Approximate
01:24PM 43.5305 -84.0705 169° South  Level FlightAware Approximate
01:25PM 43.5029 -84.0690 187° South  Level FlightAware Approximate
01:26PM 43.4757 -84.0735 187° South  Level FlightAware Approximate
01:27PM 43.4486 -84.0780 187° South  Level FlightAware Approximate
01:28PM 43.4214 -84.0826 187° South  Level FlightAware Approximate
01:29PM 43.3942 -84.0871 187° South  Level FlightAware Approximate
01:30PM 43.3671 -84.0917 187° South  Level FlightAware Approximate
01:31PM 43.3399 -84.0962 187° South  Level FlightAware Approximate
01:32PM 43.3128 -84.1007 187° South  Level FlightAware Approximate
01:33PM 43.2856 -84.1052 187° South  Level FlightAware Approximate
01:34PM 43.2584 -84.1097 187° South  Level FlightAware Approximate
01:35PM 43.2313 -84.1142 187° South  Level FlightAware Approximate
01:36PM 43.2041 -84.1179 184° South  Level FlightAware Approximate
01:37PM 43.1768 -84.1207 184° South  Level FlightAware Approximate
01:38PM 43.1496 -84.1234 184° South  Level FlightAware Approximate
01:39PM 43.1223 -84.1262 184° South  Level FlightAware Approximate
01:40PM 43.0950 -84.1289 184° South  Level FlightAware Approximate
01:41PM 43.0677 -84.1316 184° South  Level FlightAware Approximate
01:42PM 43.0404 -84.1343 184° South  Level FlightAware Approximate
01:43PM 43.0131 -84.1371 184° South  Level FlightAware Approximate
01:44PM 42.9859 -84.1398 184° South  Level FlightAware Approximate
01:45PM 42.9586 -84.1425 184° South  Level FlightAware Approximate
01:46PM 42.9313 -84.1452 184° South  Level FlightAware Approximate
01:47PM 42.9040 -84.1479 184° South  Level FlightAware Approximate
01:48PM 42.8767 -84.1509 186° South  Level FlightAware Approximate
01:49PM 42.8495 -84.1548 186° South  Level FlightAware Approximate
01:50PM 42.8223 -84.1586 186° South  Level FlightAware Approximate
01:51PM 42.7951 -84.1625 186° South  Level FlightAware Approximate
01:52PM 42.7679 -84.1663 186° South  Level FlightAware Approximate
01:53PM 42.7407 -84.1702 186° South  Level FlightAware Approximate
01:54PM 42.7135 -84.1740 186° South  Level FlightAware Approximate
01:55PM 42.6863 -84.1779 186° South  Level FlightAware Approximate
01:56PM 42.6591 -84.1817 186° South  Level FlightAware Approximate
01:57PM 42.6319 -84.1855 186° South  Level FlightAware Approximate
01:58PM 42.6046 -84.1893 186° South  Level FlightAware Approximate
01:59PM 42.5774 -84.1932 186° South  Level FlightAware Approximate
02:00PM 42.5502 -84.1970 186° South  Level FlightAware Approximate
02:01PM 42.5230 -84.2008 186° South  Level FlightAware Approximate
02:02PM 42.4958 -84.2046 186° South  Level FlightAware Approximate
02:03PM 42.4686 -84.2084 186° South  Level FlightAware Approximate
02:04PM 42.4414 -84.2122 186° South  Level FlightAware Approximate
02:05PM 42.4142 -84.2161 186° South  Level FlightAware Approximate
02:06PM 42.3870 -84.2199 186° South  Level FlightAware Approximate
02:07PM 42.3597 -84.2237 186° South  Level FlightAware Approximate
02:08PM 42.3325 -84.2275 186° South  Level FlightAware Approximate
02:09PM 42.3053 -84.2312 186° South  Level FlightAware Approximate
02:10PM 42.2764 -84.2372 189° South  Level FlightAware Approximate
02:11PM 42.2476 -84.2431 189° South  Level FlightAware Approximate
02:12PM 42.2187 -84.2490 189° South  Level FlightAware Approximate
02:13PM 42.1898 -84.2549 189° South  Level FlightAware Approximate
02:14PM 42.1609 -84.2608 189° South  Level FlightAware Approximate
02:15PM 42.1320 -84.2666 189° South  Level FlightAware Approximate
02:16PM 42.1031 -84.2725 189° South  Level FlightAware Approximate
02:17PM 42.0742 -84.2784 189° South  Level FlightAware Approximate
02:18PM 42.0447 -84.2837 183° South  Level FlightAware Approximate
02:19PM 42.0155 -84.2858 183° South  Level FlightAware Approximate
02:20PM 41.9863 -84.2879 183° South  Level FlightAware Approximate
02:21PM 41.9571 -84.2900 183° South  Level FlightAware Approximate
02:22PM 41.9280 -84.2921 183° South  Level FlightAware Approximate
02:23PM 41.8988 -84.2941 183° South  Level FlightAware Approximate
02:24PM 41.8696 -84.2962 183° South  Level FlightAware Approximate
02:25PM 41.8404 -84.2983 183° South  Level FlightAware Approximate
02:26PM 41.8132 -84.2945 130° Southeast  Level FlightAware Approximate
02:27PM 41.7944 -84.2645 130° Southeast  Level FlightAware Approximate
02:28PM 41.7755 -84.2345 130° Southeast  Level FlightAware Approximate
02:29PM 41.7567 -84.2046 130° Southeast  Level FlightAware Approximate
02:30PM 41.7378 -84.1747 130° Southeast  Level FlightAware Approximate
02:31PM 41.7189 -84.1448 130° Southeast  Level FlightAware Approximate
02:32PM 41.7001 -84.1149 130° Southeast  Level FlightAware Approximate
02:33PM 41.6812 -84.0851 130° Southeast  Level FlightAware Approximate
02:34PM 41.6623 -84.0552 130° Southeast  Level FlightAware Approximate
02:35PM 41.6434 -84.0254 130° Southeast  Level FlightAware Approximate
02:36PM 41.6245 -83.9956 130° Southeast  Level FlightAware Approximate
02:37PM 41.6056 -83.9658 130° Southeast  Level FlightAware Approximate
02:38PM 41.5867 -83.9360 130° Southeast  Level FlightAware Approximate
02:39PM 41.5677 -83.9063 130° Southeast  Level FlightAware Approximate
02:40PM 41.5488 -83.8765 130° Southeast  Level FlightAware Approximate
02:41PM 41.5299 -83.8468 130° Southeast  Level FlightAware Approximate
02:42PM 41.5109 -83.8171 130° Southeast  Level FlightAware Approximate
02:43PM 41.4915 -83.7880 134° Southeast  Level FlightAware Approximate
02:44PM 41.4713 -83.7598 134° Southeast  Level FlightAware Approximate
02:45PM 41.4511 -83.7316 134° Southeast  Level FlightAware Approximate
02:46PM 41.4310 -83.7033 134° Southeast  Level FlightAware Approximate
02:47PM 41.4120 -83.6739 124° Southeast  Level FlightAware Approximate
02:48PM 41.3958 -83.6415 124° Southeast  Level FlightAware Approximate
02:49PM 41.3910 -83.6301 124° Southeast  Level Estimated
02:50PM 41.3910 -83.6301 124° Southeast  Level Estimated